KLM105 EHAM-FACT
Flight info
| Callsign | KLM105 |
|---|---|
| Flight time | N/A |
| Altitude | 31000 |
| Route | LOPIK DCT LIMGO DCT SUTAL DCT GTQ DCT POGOL DCT LASAT DCT MOROK DCT GILIR DCT GEVEA DCT KOGAS DCT MEDAM DCT VEVAR DCT BARSO DCT KOLON DCT RARQU DCT NESUL DCT ETOIL DCT CIRTA/N0492F330 UA605 CSO UM998 BOD UR978 AS UA604 JOS/N0496F350 UA604 DLA UG861 MESIN UY339 LIKAD/N0500F340 UY242 AXULU/N0494F360 UY242 VMO/N0494F350 UN190 IXEPA/N0489F370 UN190 XALVI/N0490F360 UN188 DUSLA UQ62 ASPIK DCT CTV |
| Aircraft | B77W/H-SDE1E2E3FGHIJ2J3J4J5M1RWXY/LB1D1 |
Departure
| Time | 2026-05-04 06:46 |
|---|---|
| Airport | Amsterdam Airport Schiphol (EHAM) |
Arrival
| Time | N/A |
|---|---|
| Airport | Cape Town International Airport (FACT) |
| Time | Latitude | Longitude | Altitude | Speed | Heading |
|---|---|---|---|---|---|
| 2026-05-04 06:14 | 52.31279 | 4.76932 | -1 ft | 0 kts | 302° |
| 2026-05-04 06:36 | 52.31234 | 4.77014 | -1 ft | 4 kts | 0° |
| 2026-05-04 06:37 | 52.31210 | 4.77003 | -1 ft | 3 kts | 33° |
| 2026-05-04 06:37 | 52.31208 | 4.77001 | -1 ft | 0 kts | 33° |
| 2026-05-04 06:40 | 52.31211 | 4.77004 | -1 ft | 2 kts | 33° |
| 2026-05-04 06:40 | 52.31244 | 4.77038 | -1 ft | 9 kts | 32° |
| 2026-05-04 06:40 | 52.31309 | 4.77108 | -1 ft | 12 kts | 33° |
| 2026-05-04 06:40 | 52.31362 | 4.77161 | -1 ft | 10 kts | 28° |
| 2026-05-04 06:41 | 52.31444 | 4.77190 | -1 ft | 15 kts | 5° |
| 2026-05-04 06:41 | 52.31552 | 4.77226 | -1 ft | 13 kts | 39° |
| 2026-05-04 06:41 | 52.31601 | 4.77353 | -1 ft | 13 kts | 59° |
| 2026-05-04 06:41 | 52.31650 | 4.77479 | -1 ft | 13 kts | 56° |
| 2026-05-04 06:42 | 52.31701 | 4.77604 | 0 ft | 13 kts | 56° |
| 2026-05-04 06:42 | 52.31773 | 4.77688 | 0 ft | 13 kts | 12° |
| 2026-05-04 06:42 | 52.31864 | 4.77701 | -1 ft | 13 kts | 4° |
| 2026-05-04 06:44 | 52.32023 | 4.78005 | -3 ft | 0 kts | 182° |
| 2026-05-04 06:45 | 52.31952 | 4.77999 | -3 ft | 25 kts | 184° |
| 2026-05-04 06:45 | 52.30630 | 4.77879 | 2 ft | 165 kts | 183° |
| 2026-05-04 06:45 | 52.27880 | 4.77627 | 578 ft | 209 kts | 181° |
| 2026-05-04 06:46 | 52.24971 | 4.77810 | 2106 ft | 201 kts | 168° |
| 2026-05-04 06:46 | 52.23573 | 4.78515 | 2624 ft | 203 kts | 151° |
| 2026-05-04 06:46 | 52.22379 | 4.80035 | 2518 ft | 231 kts | 135° |
| 2026-05-04 06:46 | 52.21043 | 4.81379 | 2913 ft | 228 kts | 169° |
| 2026-05-04 06:48 | 52.12538 | 4.94731 | 6342 ft | 279 kts | 153° |
| 2026-05-04 06:48 | 52.10832 | 4.96269 | 6918 ft | 280 kts | 152° |
| 2026-05-04 06:49 | 52.09135 | 4.97854 | 7506 ft | 283 kts | 152° |
| 2026-05-04 06:50 | 51.96705 | 5.09510 | 10618 ft | 336 kts | 152° |
| 2026-05-04 06:51 | 51.94627 | 5.11459 | 10763 ft | 355 kts | 152° |
| 2026-05-04 06:51 | 51.92426 | 5.13424 | 11055 ft | 366 kts | 158° |
| 2026-05-04 06:51 | 51.90036 | 5.14952 | 11570 ft | 373 kts | 163° |
| 2026-05-04 06:51 | 51.87551 | 5.16235 | 12254 ft | 376 kts | 165° |
| 2026-05-04 06:52 | 51.85037 | 5.17459 | 13014 ft | 378 kts | 166° |
| 2026-05-04 06:52 | 51.82507 | 5.18687 | 13750 ft | 382 kts | 166° |
| 2026-05-04 06:52 | 51.79957 | 5.19947 | 14388 ft | 385 kts | 165° |
| 2026-05-04 06:52 | 51.77384 | 5.21243 | 15026 ft | 389 kts | 165° |
| 2026-05-04 06:53 | 51.74796 | 5.22567 | 15690 ft | 392 kts | 165° |
| 2026-05-04 06:53 | 51.72221 | 5.23897 | 16376 ft | 396 kts | 165° |
| 2026-05-04 06:53 | 51.69586 | 5.25270 | 17027 ft | 400 kts | 165° |
| 2026-05-04 06:53 | 51.66925 | 5.26656 | 17661 ft | 404 kts | 165° |
| 2026-05-04 06:54 | 51.64246 | 5.28098 | 18460 ft | 409 kts | 163° |
| 2026-05-04 06:54 | 51.61564 | 5.29647 | 19123 ft | 412 kts | 167° |
| 2026-05-04 06:54 | 51.58803 | 5.30862 | 19807 ft | 411 kts | 167° |
| 2026-05-04 06:54 | 51.56071 | 5.32204 | 20523 ft | 411 kts | 166° |
| 2026-05-04 06:55 | 51.53344 | 5.33627 | 21104 ft | 413 kts | 166° |
| 2026-05-04 06:55 | 51.50639 | 5.35062 | 21599 ft | 417 kts | 166° |
| 2026-05-04 06:55 | 51.47880 | 5.36521 | 22125 ft | 420 kts | 166° |
| 2026-05-04 06:55 | 51.45097 | 5.37981 | 22701 ft | 420 kts | 166° |
| 2026-05-04 06:56 | 51.42317 | 5.39427 | 23165 ft | 422 kts | 166° |
| 2026-05-04 06:57 | 51.22397 | 5.49707 | 26003 ft | 440 kts | 167° |
| 2026-05-04 06:58 | 51.19473 | 5.51203 | 26376 ft | 442 kts | 167° |
| 2026-05-04 06:58 | 51.16538 | 5.52704 | 26725 ft | 444 kts | 167° |
| 2026-05-04 06:58 | 51.13581 | 5.54213 | 27065 ft | 447 kts | 167° |
| 2026-05-04 06:58 | 51.10612 | 5.55726 | 27415 ft | 450 kts | 167° |
| 2026-05-04 06:59 | 51.07626 | 5.57244 | 27763 ft | 452 kts | 167° |
| 2026-05-04 06:59 | 51.04623 | 5.58772 | 28146 ft | 454 kts | 167° |
| 2026-05-04 06:59 | 51.01603 | 5.60308 | 28484 ft | 457 kts | 167° |
| 2026-05-04 06:59 | 50.98566 | 5.61852 | 28783 ft | 459 kts | 167° |
| 2026-05-04 07:01 | 50.76991 | 5.72734 | 30678 ft | 466 kts | 168° |
| 2026-05-04 07:01 | 50.73896 | 5.74289 | 30896 ft | 468 kts | 168° |
| 2026-05-04 07:02 | 50.67664 | 5.77409 | 30952 ft | 468 kts | 168° |
| 2026-05-04 07:02 | 50.61533 | 5.80478 | 30969 ft | 465 kts | 168° |
| 2026-05-04 07:03 | 50.55370 | 5.83540 | 30978 ft | 464 kts | 168° |
| 2026-05-04 07:03 | 50.49203 | 5.86594 | 30969 ft | 465 kts | 168° |
| 2026-05-04 07:04 | 50.43045 | 5.89642 | 30983 ft | 464 kts | 168° |
| 2026-05-04 07:04 | 50.36913 | 5.92673 | 30978 ft | 465 kts | 168° |
| 2026-05-04 07:05 | 50.30736 | 5.95714 | 30984 ft | 466 kts | 168° |
| 2026-05-04 07:05 | 50.24554 | 5.98751 | 30956 ft | 466 kts | 167° |
| 2026-05-04 07:06 | 50.15293 | 6.03283 | 30991 ft | 465 kts | 167° |
| 2026-05-04 07:07 | 50.09162 | 6.06272 | 30988 ft | 465 kts | 167° |
| 2026-05-04 07:09 | 49.84598 | 6.18170 | 30989 ft | 461 kts | 167° |
| 2026-05-04 07:09 | 49.78476 | 6.21116 | 30982 ft | 460 kts | 167° |
| 2026-05-04 07:10 | 49.72361 | 6.24056 | 30994 ft | 460 kts | 167° |
| 2026-05-04 07:12 | 49.48370 | 6.38129 | 30995 ft | 464 kts | 162° |
| 2026-05-04 07:12 | 49.42424 | 6.42042 | 31001 ft | 466 kts | 161° |
| 2026-05-04 07:13 | 49.36490 | 6.46096 | 31000 ft | 467 kts | 161° |
| 2026-05-04 07:13 | 49.30588 | 6.50120 | 31002 ft | 467 kts | 161° |
| 2026-05-04 07:14 | 49.15753 | 6.60126 | 31012 ft | 466 kts | 161° |
| 2026-05-04 07:15 | 49.09860 | 6.64082 | 30977 ft | 464 kts | 161° |
| 2026-05-04 07:15 | 49.03941 | 6.68029 | 31023 ft | 465 kts | 161° |
| 2026-05-04 07:16 | 48.97804 | 6.70837 | 31035 ft | 458 kts | 175° |
| 2026-05-04 07:16 | 48.91481 | 6.71448 | 31031 ft | 454 kts | 185° |
| 2026-05-04 07:17 | 48.85149 | 6.71116 | 31012 ft | 458 kts | 185° |
| 2026-05-04 07:17 | 48.78812 | 6.70871 | 31000 ft | 455 kts | 185° |
| 2026-05-04 07:18 | 48.72520 | 6.70540 | 30995 ft | 454 kts | 185° |
| 2026-05-04 07:18 | 48.66243 | 6.70156 | 30996 ft | 451 kts | 184° |
| 2026-05-04 07:19 | 48.59935 | 6.70017 | 31022 ft | 458 kts | 184° |
| 2026-05-04 07:19 | 48.53586 | 6.69824 | 31005 ft | 456 kts | 184° |
| 2026-05-04 07:20 | 48.47293 | 6.69601 | 31015 ft | 455 kts | 185° |
| 2026-05-04 07:20 | 48.40973 | 6.69342 | 31009 ft | 455 kts | 184° |
| 2026-05-04 07:22 | 48.15694 | 6.68395 | 31006 ft | 454 kts | 184° |
| 2026-05-04 07:23 | 48.09372 | 6.68157 | 31017 ft | 454 kts | 184° |
| 2026-05-04 07:23 | 48.03067 | 6.67925 | 31016 ft | 454 kts | 184° |
| 2026-05-04 07:24 | 47.96749 | 6.67690 | 31035 ft | 454 kts | 184° |
| 2026-05-04 07:24 | 47.90470 | 6.67459 | 31034 ft | 455 kts | 184° |
| 2026-05-04 07:26 | 47.65075 | 6.66522 | 31038 ft | 458 kts | 184° |
| 2026-05-04 07:27 | 47.58751 | 6.66291 | 31045 ft | 458 kts | 184° |
| 2026-05-04 07:27 | 47.52379 | 6.66062 | 31051 ft | 457 kts | 184° |
| 2026-05-04 07:28 | 47.46007 | 6.65831 | 31069 ft | 459 kts | 184° |
| 2026-05-04 07:28 | 47.39813 | 6.64082 | 31028 ft | 455 kts | 204° |
| 2026-05-04 07:29 | 47.34516 | 6.59347 | 31041 ft | 444 kts | 220° |
| 2026-05-04 07:29 | 47.29856 | 6.53332 | 31040 ft | 449 kts | 220° |
| 2026-05-04 07:30 | 47.25096 | 6.47296 | 31046 ft | 453 kts | 220° |
| 2026-05-04 07:30 | 47.20296 | 6.41290 | 31042 ft | 453 kts | 220° |
| 2026-05-04 07:31 | 47.15490 | 6.35306 | 31030 ft | 451 kts | 220° |
| 2026-05-04 07:33 | 46.96227 | 6.22430 | 31037 ft | 452 kts | 187° |
| 2026-05-04 07:33 | 46.93097 | 6.22064 | 31051 ft | 452 kts | 187° |
| 2026-05-04 07:33 | 46.86867 | 6.21301 | 31051 ft | 453 kts | 187° |
| 2026-05-04 07:34 | 46.80581 | 6.20474 | 31042 ft | 455 kts | 188° |
| 2026-05-04 07:34 | 46.74277 | 6.19631 | 31036 ft | 454 kts | 188° |
| 2026-05-04 07:35 | 46.67985 | 6.18799 | 31046 ft | 454 kts | 188° |
| 2026-05-04 07:35 | 46.61703 | 6.17969 | 31035 ft | 453 kts | 188° |
| 2026-05-04 07:36 | 46.55467 | 6.17145 | 31033 ft | 453 kts | 188° |
| 2026-05-04 07:38 | 46.30497 | 6.13875 | 31046 ft | 450 kts | 186° |
| 2026-05-04 07:38 | 46.24226 | 6.14562 | 31062 ft | 457 kts | 172° |
| 2026-05-04 07:39 | 46.18124 | 6.17294 | 31056 ft | 463 kts | 162° |
| 2026-05-04 07:39 | 46.12174 | 6.20862 | 31044 ft | 463 kts | 162° |
| 2026-05-04 07:40 | 46.06258 | 6.24363 | 31071 ft | 463 kts | 162° |
| 2026-05-04 07:40 | 46.00252 | 6.27861 | 31025 ft | 466 kts | 162° |
| 2026-05-04 07:41 | 45.94262 | 6.31327 | 31040 ft | 463 kts | 162° |
| 2026-05-04 07:41 | 45.88288 | 6.34782 | 31032 ft | 463 kts | 162° |
| 2026-05-04 07:42 | 45.82371 | 6.38287 | 31029 ft | 466 kts | 158° |
| 2026-05-04 07:42 | 45.76756 | 6.43069 | 31038 ft | 475 kts | 148° |
| 2026-05-04 07:43 | 45.71386 | 6.48638 | 31039 ft | 477 kts | 149° |
| 2026-05-04 07:43 | 45.65996 | 6.54149 | 31011 ft | 476 kts | 149° |
| 2026-05-04 07:44 | 45.60627 | 6.59611 | 31057 ft | 474 kts | 149° |
| 2026-05-04 07:44 | 45.55235 | 6.65059 | 31028 ft | 476 kts | 149° |
| 2026-05-04 07:45 | 45.49841 | 6.70496 | 31069 ft | 480 kts | 149° |
| 2026-05-04 07:45 | 45.44388 | 6.75981 | 31062 ft | 480 kts | 148° |
| 2026-05-04 07:46 | 45.38949 | 6.81449 | 31105 ft | 479 kts | 149° |
| 2026-05-04 07:46 | 45.33516 | 6.86889 | 31105 ft | 477 kts | 148° |
| 2026-05-04 07:47 | 45.28006 | 6.91923 | 31112 ft | 470 kts | 158° |
| 2026-05-04 07:49 | 45.02690 | 6.97732 | 31150 ft | 468 kts | 176° |
| 2026-05-04 07:49 | 44.96209 | 6.98754 | 31120 ft | 470 kts | 176° |
| 2026-05-04 07:50 | 44.89708 | 6.99781 | 31125 ft | 470 kts | 176° |
| 2026-05-04 07:50 | 44.83219 | 7.00789 | 31131 ft | 469 kts | 177° |
| 2026-05-04 07:51 | 44.76729 | 7.00773 | 31121 ft | 465 kts | 188° |
| 2026-05-04 07:51 | 44.70375 | 6.99509 | 31121 ft | 465 kts | 190° |
| 2026-05-04 07:52 | 44.63971 | 6.98267 | 31133 ft | 465 kts | 189° |
| 2026-05-04 07:52 | 44.57561 | 6.97059 | 31138 ft | 465 kts | 189° |
| 2026-05-04 07:54 | 44.31983 | 6.92270 | 31149 ft | 465 kts | 189° |
| 2026-05-04 07:55 | 44.25554 | 6.91071 | 31145 ft | 467 kts | 189° |
| 2026-05-04 07:55 | 44.19112 | 6.89875 | 31148 ft | 466 kts | 189° |
| 2026-05-04 07:56 | 44.12673 | 6.89294 | 31140 ft | 469 kts | 181° |
| 2026-05-04 07:56 | 44.06161 | 6.90167 | 31141 ft | 472 kts | 176° |
| 2026-05-04 07:57 | 43.99625 | 6.91207 | 31125 ft | 473 kts | 176° |
| 2026-05-04 07:57 | 43.93083 | 6.92196 | 31128 ft | 473 kts | 176° |
| 2026-05-04 07:58 | 43.86586 | 6.93162 | 31120 ft | 473 kts | 176° |
| 2026-05-04 07:58 | 43.80048 | 6.94131 | 31115 ft | 472 kts | 176° |
| 2026-05-04 07:59 | 43.73518 | 6.95104 | 31108 ft | 472 kts | 176° |
| 2026-05-04 07:59 | 43.66985 | 6.95464 | 31127 ft | 469 kts | 182° |
| 2026-05-04 08:00 | 43.60484 | 6.95529 | 31088 ft | 471 kts | 182° |
| 2026-05-04 08:02 | 43.34215 | 6.95958 | 31100 ft | 473 kts | 182° |
| 2026-05-04 08:02 | 43.27677 | 6.96073 | 31091 ft | 473 kts | 182° |
| 2026-05-04 08:03 | 43.21095 | 6.96188 | 31078 ft | 474 kts | 182° |
| 2026-05-04 08:03 | 43.14506 | 6.96300 | 31086 ft | 474 kts | 182° |
| 2026-05-04 08:04 | 43.07909 | 6.96415 | 31082 ft | 474 kts | 182° |
| 2026-05-04 08:04 | 43.01358 | 6.96528 | 31061 ft | 474 kts | 183° |
| 2026-05-04 08:05 | 42.94772 | 6.96640 | 31069 ft | 474 kts | 183° |
| 2026-05-04 08:05 | 42.88173 | 6.96752 | 31077 ft | 474 kts | 183° |
| 2026-05-04 08:06 | 42.81571 | 6.96864 | 31079 ft | 475 kts | 183° |
| 2026-05-04 08:06 | 42.75004 | 6.96976 | 31071 ft | 475 kts | 183° |
| 2026-05-04 08:08 | 42.48527 | 6.97424 | 31066 ft | 476 kts | 183° |
| 2026-05-04 08:11 | 42.18823 | 6.97925 | 31053 ft | 477 kts | 184° |
| 2026-05-04 08:11 | 42.08868 | 6.98091 | 31064 ft | 477 kts | 184° |
| 2026-05-04 08:12 | 42.02229 | 6.98198 | 31062 ft | 478 kts | 184° |
| 2026-05-04 08:12 | 41.95567 | 6.98469 | 31050 ft | 479 kts | 183° |
| 2026-05-04 08:13 | 41.88915 | 6.98872 | 31055 ft | 478 kts | 182° |
| 2026-05-04 08:13 | 41.82307 | 6.99258 | 31057 ft | 478 kts | 182° |
| 2026-05-04 08:14 | 41.75661 | 6.99619 | 31050 ft | 478 kts | 183° |
| 2026-05-04 08:16 | 41.49124 | 7.01020 | 31061 ft | 478 kts | 184° |
| 2026-05-04 08:16 | 41.42473 | 7.01369 | 31063 ft | 479 kts | 184° |
| 2026-05-04 08:17 | 41.35811 | 7.01719 | 31060 ft | 480 kts | 184° |
| 2026-05-04 08:17 | 41.29134 | 7.02070 | 31053 ft | 480 kts | 184° |
| 2026-05-04 08:19 | 41.02466 | 7.03587 | 31060 ft | 482 kts | 182° |
| 2026-05-04 08:20 | 40.95784 | 7.04296 | 31058 ft | 482 kts | 181° |
| 2026-05-04 08:20 | 40.89150 | 7.05007 | 31053 ft | 481 kts | 182° |
| 2026-05-04 08:21 | 40.82477 | 7.05685 | 31059 ft | 481 kts | 182° |
| 2026-05-04 08:21 | 40.75815 | 7.06341 | 31062 ft | 481 kts | 182° |
| 2026-05-04 08:22 | 40.69137 | 7.06995 | 31061 ft | 481 kts | 182° |
| 2026-05-04 08:24 | 40.42420 | 7.09615 | 31059 ft | 480 kts | 183° |
| 2026-05-04 08:24 | 40.35821 | 7.10260 | 31062 ft | 478 kts | 183° |
| 2026-05-04 08:25 | 40.29201 | 7.10904 | 31063 ft | 477 kts | 183° |
| 2026-05-04 08:25 | 40.22569 | 7.11545 | 31062 ft | 478 kts | 182° |
| 2026-05-04 08:27 | 39.95961 | 7.14114 | 31056 ft | 482 kts | 182° |
| 2026-05-04 08:28 | 39.89273 | 7.14758 | 31068 ft | 482 kts | 182° |
| 2026-05-04 08:28 | 39.82563 | 7.15404 | 31067 ft | 484 kts | 182° |
| 2026-05-04 08:29 | 39.75845 | 7.16037 | 31055 ft | 482 kts | 184° |
| 2026-05-04 08:31 | 39.50915 | 7.12308 | 31044 ft | 471 kts | 194° |
| 2026-05-04 08:33 | 39.28190 | 7.08278 | 31758 ft | 471 kts | 195° |
| 2026-05-04 08:33 | 39.24955 | 7.07706 | 32180 ft | 468 kts | 195° |
| 2026-05-04 08:35 | 39.02488 | 7.03738 | 33056 ft | 467 kts | 195° |
| 2026-05-04 08:35 | 38.99276 | 7.03175 | 33039 ft | 467 kts | 195° |
| 2026-05-04 08:35 | 38.92835 | 7.02111 | 33033 ft | 467 kts | 194° |
| 2026-05-04 08:37 | 38.70248 | 6.98474 | 33051 ft | 471 kts | 194° |
| 2026-05-04 08:38 | 38.63739 | 6.97420 | 33049 ft | 472 kts | 194° |
| 2026-05-04 08:38 | 38.57217 | 6.96370 | 33053 ft | 473 kts | 194° |
| 2026-05-04 08:40 | 38.31110 | 6.92185 | 33044 ft | 474 kts | 194° |
| 2026-05-04 08:41 | 38.24573 | 6.91141 | 33045 ft | 473 kts | 194° |
| 2026-05-04 08:41 | 38.18070 | 6.90104 | 33072 ft | 475 kts | 194° |
| 2026-05-04 08:42 | 38.11486 | 6.89044 | 33027 ft | 477 kts | 194° |
| 2026-05-04 08:42 | 38.04936 | 6.88024 | 33038 ft | 472 kts | 194° |
| 2026-05-04 08:43 | 37.98425 | 6.86998 | 33024 ft | 471 kts | 194° |
| 2026-05-04 08:43 | 37.91979 | 6.85942 | 33042 ft | 470 kts | 194° |
| 2026-05-04 08:44 | 37.85472 | 6.84924 | 33072 ft | 473 kts | 193° |
| 2026-05-04 08:46 | 37.59421 | 6.80839 | 33048 ft | 467 kts | 193° |
| 2026-05-04 08:46 | 37.52975 | 6.79832 | 33054 ft | 467 kts | 193° |
| 2026-05-04 08:47 | 37.46519 | 6.78822 | 33059 ft | 468 kts | 193° |
| 2026-05-04 08:47 | 37.40096 | 6.77818 | 33058 ft | 470 kts | 193° |
| 2026-05-04 08:48 | 37.33592 | 6.76803 | 33062 ft | 472 kts | 193° |
| 2026-05-04 08:48 | 37.27077 | 6.75795 | 33040 ft | 473 kts | 193° |
| 2026-05-04 08:49 | 37.20543 | 6.74783 | 33060 ft | 473 kts | 193° |
| 2026-05-04 08:50 | 36.97722 | 6.71235 | 33056 ft | 471 kts | 193° |
| 2026-05-04 08:51 | 36.91225 | 6.70208 | 33069 ft | 471 kts | 192° |
| 2026-05-04 08:51 | 36.84702 | 6.69231 | 33078 ft | 474 kts | 192° |
| 2026-05-04 08:52 | 36.78189 | 6.68250 | 33059 ft | 475 kts | 192° |
| 2026-05-04 08:52 | 36.71627 | 6.67246 | 33080 ft | 476 kts | 192° |
| 2026-05-04 08:54 | 36.45378 | 6.63239 | 33137 ft | 475 kts | 192° |
| 2026-05-04 08:55 | 36.38817 | 6.62244 | 33159 ft | 475 kts | 192° |
| 2026-05-04 08:55 | 36.32257 | 6.61248 | 33157 ft | 475 kts | 192° |
| 2026-05-04 09:01 | 35.61696 | 6.62785 | 33121 ft | 483 kts | 184° |
| 2026-05-04 09:01 | 35.55002 | 6.63001 | 33134 ft | 487 kts | 184° |
| 2026-05-04 09:02 | 35.48217 | 6.63210 | 33124 ft | 486 kts | 184° |
| 2026-05-04 09:02 | 35.41470 | 6.63413 | 33126 ft | 484 kts | 184° |
| 2026-05-04 09:03 | 35.34738 | 6.63608 | 33138 ft | 483 kts | 184° |
| 2026-05-04 09:03 | 35.28023 | 6.63804 | 33140 ft | 482 kts | 184° |
| 2026-05-04 09:04 | 35.21350 | 6.63998 | 33158 ft | 483 kts | 184° |
| 2026-05-04 09:04 | 35.14622 | 6.64191 | 33176 ft | 484 kts | 184° |
| 2026-05-04 09:05 | 35.07874 | 6.64388 | 33146 ft | 485 kts | 184° |
| 2026-05-04 09:05 | 35.01133 | 6.64587 | 33148 ft | 483 kts | 183° |
| 2026-05-04 09:06 | 34.94417 | 6.64781 | 33150 ft | 482 kts | 184° |
| 2026-05-04 09:08 | 34.67642 | 6.65568 | 33147 ft | 483 kts | 183° |
| 2026-05-04 09:08 | 34.60953 | 6.65771 | 33143 ft | 485 kts | 183° |
| 2026-05-04 09:09 | 34.54206 | 6.65975 | 33123 ft | 485 kts | 184° |
| 2026-05-04 09:09 | 34.47455 | 6.66176 | 33135 ft | 485 kts | 184° |
| 2026-05-04 09:10 | 34.40711 | 6.66380 | 33140 ft | 485 kts | 184° |
| 2026-05-04 09:10 | 34.33967 | 6.66582 | 33135 ft | 485 kts | 184° |
| 2026-05-04 09:11 | 34.27272 | 6.66780 | 33119 ft | 484 kts | 184° |
| 2026-05-04 09:11 | 34.20548 | 6.66983 | 33132 ft | 483 kts | 184° |
| 2026-05-04 09:12 | 34.13832 | 6.67182 | 33138 ft | 482 kts | 184° |
| 2026-05-04 09:14 | 33.86988 | 6.67980 | 33136 ft | 482 kts | 184° |
| 2026-05-04 09:14 | 33.80276 | 6.68178 | 33129 ft | 482 kts | 184° |
| 2026-05-04 09:15 | 33.73571 | 6.68373 | 33124 ft | 482 kts | 184° |
| 2026-05-04 09:15 | 33.66921 | 6.68567 | 33125 ft | 482 kts | 184° |
| 2026-05-04 09:17 | 33.36740 | 6.69407 | 33133 ft | 484 kts | 183° |
| 2026-05-04 09:18 | 33.30000 | 6.69634 | 33132 ft | 485 kts | 183° |
| 2026-05-04 09:18 | 33.23262 | 6.69846 | 33126 ft | 485 kts | 183° |
| 2026-05-04 09:19 | 33.16515 | 6.70046 | 33134 ft | 484 kts | 183° |
| 2026-05-04 09:19 | 33.09779 | 6.70238 | 33128 ft | 484 kts | 184° |
| 2026-05-04 09:20 | 33.03089 | 6.70432 | 33117 ft | 484 kts | 184° |
| 2026-05-04 09:20 | 32.96352 | 6.70638 | 33109 ft | 485 kts | 183° |
| 2026-05-04 09:21 | 32.89617 | 6.70857 | 33127 ft | 484 kts | 184° |
| 2026-05-04 09:21 | 32.82893 | 6.71041 | 33112 ft | 483 kts | 183° |
| 2026-05-04 09:22 | 32.76231 | 6.71263 | 33116 ft | 482 kts | 184° |
| 2026-05-04 09:22 | 32.69518 | 6.71419 | 33114 ft | 483 kts | 184° |
| 2026-05-04 09:23 | 32.62778 | 6.71591 | 33126 ft | 485 kts | 184° |
| 2026-05-04 09:23 | 32.56025 | 6.71782 | 33129 ft | 487 kts | 184° |
| 2026-05-04 09:25 | 32.28950 | 6.72546 | 33110 ft | 486 kts | 184° |
| 2026-05-04 09:26 | 32.22201 | 6.72742 | 33112 ft | 484 kts | 184° |
| 2026-05-04 09:26 | 32.15519 | 6.72938 | 33092 ft | 484 kts | 184° |
| 2026-05-04 09:27 | 32.08796 | 6.73133 | 33110 ft | 483 kts | 184° |
| 2026-05-04 09:27 | 32.02072 | 6.73323 | 33112 ft | 484 kts | 184° |
| 2026-05-04 09:28 | 31.95338 | 6.73514 | 33110 ft | 484 kts | 184° |
| 2026-05-04 09:28 | 31.88645 | 6.73704 | 33087 ft | 485 kts | 184° |
| 2026-05-04 09:29 | 31.81898 | 6.73893 | 33103 ft | 485 kts | 184° |
| 2026-05-04 09:29 | 31.75150 | 6.74084 | 33105 ft | 485 kts | 184° |
| 2026-05-04 09:30 | 31.68393 | 6.74273 | 33106 ft | 486 kts | 184° |
| 2026-05-04 09:30 | 31.61630 | 6.74461 | 33072 ft | 486 kts | 184° |
| 2026-05-04 09:31 | 31.54864 | 6.74652 | 33089 ft | 487 kts | 184° |
| 2026-05-04 09:31 | 31.48137 | 6.74840 | 33108 ft | 487 kts | 184° |
| 2026-05-04 09:32 | 31.41358 | 6.75028 | 33093 ft | 488 kts | 184° |
| 2026-05-04 09:34 | 31.14250 | 6.75787 | 33093 ft | 488 kts | 184° |
| 2026-05-04 09:34 | 31.07461 | 6.75975 | 33090 ft | 488 kts | 184° |
| 2026-05-04 09:35 | 31.00676 | 6.76163 | 33079 ft | 487 kts | 184° |
| 2026-05-04 09:35 | 30.93938 | 6.76349 | 33082 ft | 488 kts | 184° |
| 2026-05-04 09:37 | 30.66787 | 6.77099 | 33080 ft | 489 kts | 184° |
| 2026-05-04 09:38 | 30.59978 | 6.77287 | 33078 ft | 490 kts | 184° |
| 2026-05-04 09:38 | 30.53155 | 6.77471 | 33075 ft | 490 kts | 184° |
| 2026-05-04 09:39 | 30.46333 | 6.77661 | 33079 ft | 490 kts | 184° |
| 2026-05-04 09:39 | 30.39513 | 6.77845 | 33073 ft | 490 kts | 184° |
| 2026-05-04 09:40 | 30.32748 | 6.78033 | 33071 ft | 490 kts | 184° |
| 2026-05-04 09:40 | 30.25936 | 6.78219 | 33073 ft | 489 kts | 184° |
| 2026-05-04 09:42 | 29.98711 | 6.78961 | 33072 ft | 491 kts | 184° |
| 2026-05-04 09:43 | 29.91856 | 6.79142 | 33048 ft | 493 kts | 185° |
| 2026-05-04 09:43 | 29.85000 | 6.79328 | 33052 ft | 493 kts | 185° |
| 2026-05-04 09:44 | 29.78178 | 6.79514 | 33059 ft | 493 kts | 185° |
| 2026-05-04 09:46 | 29.50711 | 6.80253 | 33047 ft | 495 kts | 185° |
| 2026-05-04 09:46 | 29.43866 | 6.80433 | 33054 ft | 496 kts | 185° |
| 2026-05-04 09:47 | 29.36956 | 6.80621 | 33044 ft | 497 kts | 185° |
| 2026-05-04 09:49 | 29.09416 | 6.81361 | 33043 ft | 495 kts | 185° |
| 2026-05-04 09:51 | 28.85290 | 6.82002 | 33035 ft | 498 kts | 185° |
| 2026-05-04 09:51 | 28.78367 | 6.82185 | 33015 ft | 498 kts | 185° |
| 2026-05-04 09:52 | 28.71436 | 6.82368 | 33030 ft | 498 kts | 186° |
| 2026-05-04 09:52 | 28.64510 | 6.82554 | 33035 ft | 498 kts | 185° |
| 2026-05-04 09:53 | 28.57578 | 6.82737 | 33034 ft | 498 kts | 186° |
| 2026-05-04 09:53 | 28.50699 | 6.82917 | 33031 ft | 498 kts | 186° |
| 2026-05-04 09:54 | 28.43762 | 6.83099 | 33022 ft | 499 kts | 186° |
| 2026-05-04 09:54 | 28.36816 | 6.83281 | 33025 ft | 500 kts | 186° |
| 2026-05-04 09:55 | 28.29859 | 6.83466 | 33020 ft | 500 kts | 186° |
| 2026-05-04 09:55 | 28.22944 | 6.83647 | 33015 ft | 500 kts | 186° |
| 2026-05-04 09:56 | 28.15981 | 6.83829 | 33013 ft | 500 kts | 186° |
| 2026-05-04 09:56 | 28.08995 | 6.84240 | 33001 ft | 506 kts | 181° |
| 2026-05-04 09:57 | 28.01976 | 6.85058 | 33002 ft | 507 kts | 180° |
| 2026-05-04 09:57 | 27.94962 | 6.85913 | 33011 ft | 507 kts | 180° |
| 2026-05-04 09:58 | 27.87994 | 6.86716 | 32974 ft | 506 kts | 181° |
| 2026-05-04 09:58 | 27.80987 | 6.87497 | 33003 ft | 506 kts | 181° |
| 2026-05-04 10:00 | 27.52874 | 6.90587 | 33001 ft | 510 kts | 181° |
| 2026-05-04 10:04 | 27.03526 | 6.96007 | 32985 ft | 510 kts | 181° |
| 2026-05-04 10:04 | 26.96466 | 6.96774 | 32985 ft | 510 kts | 181° |
| 2026-05-04 10:05 | 26.89479 | 6.97528 | 32988 ft | 507 kts | 181° |
| 2026-05-04 10:05 | 26.82431 | 6.98303 | 32989 ft | 510 kts | 181° |
| 2026-05-04 10:06 | 26.75338 | 6.99068 | 32979 ft | 514 kts | 181° |
| 2026-05-04 10:06 | 26.68221 | 6.99839 | 32904 ft | 513 kts | 180° |
| 2026-05-04 10:08 | 26.43383 | 7.02528 | 32976 ft | 516 kts | 181° |
| 2026-05-04 10:08 | 26.36240 | 7.03301 | 32959 ft | 516 kts | 181° |
| 2026-05-04 10:09 | 26.29110 | 7.04069 | 32969 ft | 515 kts | 181° |
| 2026-05-04 10:09 | 26.22024 | 7.04833 | 32968 ft | 514 kts | 181° |
| 2026-05-04 10:10 | 26.14905 | 7.05599 | 32977 ft | 513 kts | 181° |
| 2026-05-04 10:10 | 26.07800 | 7.06361 | 32951 ft | 513 kts | 181° |
| 2026-05-04 10:11 | 26.00701 | 7.07125 | 32975 ft | 513 kts | 181° |
| 2026-05-04 10:11 | 25.93623 | 7.07890 | 32980 ft | 516 kts | 180° |
| 2026-05-04 10:12 | 25.86470 | 7.08668 | 32971 ft | 516 kts | 180° |
| 2026-05-04 10:12 | 25.79337 | 7.09451 | 32987 ft | 515 kts | 180° |
| 2026-05-04 10:13 | 25.72211 | 7.10229 | 32982 ft | 514 kts | 180° |
| 2026-05-04 10:13 | 25.65093 | 7.10998 | 33007 ft | 514 kts | 180° |
| 2026-05-04 10:14 | 25.58031 | 7.11764 | 32997 ft | 514 kts | 180° |
| 2026-05-04 10:16 | 25.29543 | 7.14847 | 33021 ft | 516 kts | 180° |
| 2026-05-04 10:16 | 25.22395 | 7.15618 | 33019 ft | 516 kts | 180° |
| 2026-05-04 10:17 | 25.15247 | 7.16388 | 33000 ft | 516 kts | 180° |
| 2026-05-04 10:19 | 24.86673 | 7.19459 | 33019 ft | 517 kts | 180° |
| 2026-05-04 10:19 | 24.79515 | 7.20225 | 33011 ft | 517 kts | 180° |
| 2026-05-04 10:20 | 24.72406 | 7.20991 | 33015 ft | 517 kts | 180° |
| 2026-05-04 10:20 | 24.65252 | 7.21760 | 33018 ft | 516 kts | 180° |
| 2026-05-04 10:21 | 24.58101 | 7.22526 | 33006 ft | 517 kts | 180° |
| 2026-05-04 10:21 | 24.50943 | 7.23290 | 33010 ft | 517 kts | 180° |
| 2026-05-04 10:22 | 24.40203 | 7.24436 | 33013 ft | 517 kts | 180° |
| 2026-05-04 10:23 | 24.33091 | 7.25195 | 33009 ft | 516 kts | 180° |